createdAt,value
2018-06-23T00:00:10.862Z,63.28
2018-06-23T00:00:42.432Z,63.26
2018-06-23T00:01:14.043Z,63.20
2018-06-23T00:01:45.668Z,63.29
2018-06-23T00:02:17.342Z,63.36
2018-06-23T00:02:48.908Z,63.40
2018-06-23T00:03:20.499Z,63.23
2018-06-23T00:03:52.091Z,63.35
2018-06-23T00:04:23.684Z,63.28
2018-06-23T00:04:55.276Z,63.24
2018-06-23T00:05:26.881Z,63.33
2018-06-23T00:05:58.466Z,63.38
2018-06-23T00:06:30.065Z,63.45
2018-06-23T00:07:01.674Z,63.26
2018-06-23T00:07:33.336Z,63.41
2018-06-23T00:08:04.925Z,63.33
2018-06-23T00:08:36.515Z,63.32
2018-06-23T00:09:08.121Z,63.25
2018-06-23T00:09:39.726Z,63.32
2018-06-23T00:10:11.331Z,63.29
2018-06-23T00:10:42.926Z,63.34
2018-06-23T00:11:14.597Z,63.27
2018-06-23T00:11:46.195Z,63.31
2018-06-23T00:12:17.801Z,63.29
2018-06-23T00:12:49.425Z,63.38
2018-06-23T00:13:21.038Z,63.36
2018-06-23T00:13:52.617Z,63.33
2018-06-23T00:14:24.277Z,63.62
2018-06-23T00:14:55.865Z,63.33
2018-06-23T00:15:27.470Z,63.26
2018-06-23T00:15:59.061Z,63.21
2018-06-23T00:16:30.628Z,62.88
2018-06-23T00:17:02.222Z,63.00
2018-06-23T00:17:33.810Z,63.04
2018-06-23T00:18:05.413Z,63.37
2018-06-23T00:18:37.000Z,63.26
2018-06-23T00:19:08.584Z,63.10
2018-06-23T00:19:40.220Z,63.09
2018-06-23T00:20:11.805Z,63.11
2018-06-23T00:20:43.432Z,63.23
2018-06-23T00:21:15.024Z,63.21
2018-06-23T00:21:46.633Z,63.13
2018-06-23T00:22:18.263Z,63.21
2018-06-23T00:22:49.849Z,63.30
2018-06-23T00:23:21.458Z,63.38
2018-06-23T00:23:53.065Z,63.40
2018-06-23T00:24:24.636Z,63.31
2018-06-23T00:24:56.241Z,63.35
2018-06-23T00:25:27.845Z,63.44
2018-06-23T00:25:59.450Z,63.45
2018-06-23T00:26:31.041Z,63.39
2018-06-23T00:27:02.622Z,63.44
2018-06-23T00:27:34.250Z,63.44
2018-06-23T00:28:05.833Z,63.47
2018-06-23T00:28:37.476Z,63.48
2018-06-23T00:29:09.075Z,63.47
2018-06-23T00:29:40.683Z,63.40
2018-06-23T00:30:12.293Z,63.53
2018-06-23T00:30:43.887Z,63.51
2018-06-23T00:31:15.556Z,63.51
2018-06-23T00:31:47.157Z,63.59
2018-06-23T00:32:18.762Z,63.56
2018-06-23T00:32:50.374Z,63.52
2018-06-23T00:33:21.957Z,63.58
2018-06-23T00:33:53.608Z,63.53
2018-06-23T00:34:25.230Z,63.53
2018-06-23T00:34:56.838Z,63.56
2018-06-23T00:35:28.445Z,63.67
2018-06-23T00:36:00.054Z,63.64
2018-06-23T00:36:31.638Z,63.62
2018-06-23T00:37:03.211Z,63.59
2018-06-23T00:37:34.798Z,63.78
2018-06-23T00:38:06.381Z,63.79
2018-06-23T00:38:37.952Z,63.91
2018-06-23T00:39:09.530Z,63.97
2018-06-23T00:39:41.127Z,63.99
2018-06-23T00:40:12.712Z,63.99
2018-06-23T00:40:44.314Z,63.94
2018-06-23T00:41:15.916Z,63.94
2018-06-23T00:41:47.507Z,63.94
2018-06-23T00:42:19.093Z,64.04
2018-06-23T00:42:50.674Z,64.04
2018-06-23T00:43:22.248Z,63.97
2018-06-23T00:43:53.858Z,64.10
2018-06-23T00:44:25.505Z,64.05
2018-06-23T00:44:57.085Z,64.26
2018-06-23T00:45:28.689Z,64.30
2018-06-23T00:46:00.270Z,64.14
2018-06-23T00:46:31.862Z,64.24
2018-06-23T00:47:03.437Z,64.20
2018-06-23T00:47:35.032Z,64.51
2018-06-23T00:48:06.637Z,64.46
2018-06-23T00:48:38.236Z,64.46
2018-06-23T00:49:09.860Z,64.58
2018-06-23T00:49:41.437Z,64.54
2018-06-23T00:50:13.022Z,64.68
2018-06-23T00:50:44.620Z,64.68
2018-06-23T00:51:16.198Z,64.64
2018-06-23T00:51:47.783Z,64.75
2018-06-23T00:52:19.389Z,64.68
2018-06-23T00:52:50.987Z,64.64
2018-06-23T00:53:22.576Z,64.64
2018-06-23T00:53:54.157Z,64.63
2018-06-23T00:54:25.795Z,64.75
2018-06-23T00:54:57.397Z,64.70
2018-06-23T00:55:28.971Z,64.76
2018-06-23T00:56:00.557Z,64.90
2018-06-23T00:56:32.125Z,64.84
2018-06-23T00:57:03.738Z,64.77
2018-06-23T00:57:35.321Z,64.91
2018-06-23T00:58:06.892Z,65.09
2018-06-23T00:58:38.460Z,64.88
2018-06-23T00:59:10.062Z,64.93
2018-06-23T00:59:41.699Z,64.97
2018-06-23T01:00:13.334Z,65.11
2018-06-23T01:00:44.907Z,65.29
2018-06-23T01:01:16.494Z,65.39
2018-06-23T01:01:48.095Z,65.08
2018-06-23T01:02:19.681Z,65.12
2018-06-23T01:02:51.281Z,65.14
2018-06-23T01:03:22.890Z,65.14
2018-06-23T01:03:54.487Z,65.19
2018-06-23T01:04:26.069Z,65.27
2018-06-23T01:04:57.635Z,65.36
2018-06-23T01:05:29.248Z,65.23
2018-06-23T01:06:00.833Z,65.30
2018-06-23T01:06:32.416Z,65.22
2018-06-23T01:07:03.998Z,65.31
2018-06-23T01:07:35.564Z,65.21
2018-06-23T01:08:07.149Z,65.26
2018-06-23T01:08:38.762Z,65.25
2018-06-23T01:09:10.373Z,65.23
2018-06-23T01:09:41.974Z,65.20
2018-06-23T01:10:13.622Z,65.15
2018-06-23T01:10:45.209Z,65.23
2018-06-23T01:11:16.776Z,65.07
2018-06-23T01:11:48.347Z,65.14
2018-06-23T01:12:19.923Z,65.11
2018-06-23T01:12:51.515Z,65.06
2018-06-23T01:13:23.107Z,65.09
2018-06-23T01:13:54.715Z,64.90
2018-06-23T01:14:26.302Z,64.97
2018-06-23T01:14:57.965Z,65.20
2018-06-23T01:15:29.569Z,65.05
2018-06-23T01:16:01.178Z,64.97
2018-06-23T01:16:32.752Z,64.82
2018-06-23T01:17:04.330Z,64.77
2018-06-23T01:17:35.914Z,64.78
2018-06-23T01:18:07.504Z,64.93
2018-06-23T01:18:39.100Z,65.09
2018-06-23T01:19:10.709Z,64.97
2018-06-23T01:19:42.307Z,64.85
2018-06-23T01:20:13.880Z,64.89
2018-06-23T01:20:45.481Z,64.96
2018-06-23T01:21:17.075Z,65.03
2018-06-23T01:21:48.661Z,64.96
2018-06-23T01:22:20.264Z,64.90
2018-06-23T01:22:51.847Z,64.89
2018-06-23T01:23:23.429Z,64.85
2018-06-23T01:23:55.010Z,64.95
2018-06-23T01:24:26.583Z,64.92
2018-06-23T01:24:58.184Z,64.87
2018-06-23T01:25:29.836Z,64.91
2018-06-23T01:26:01.428Z,64.87
2018-06-23T01:26:33.101Z,64.84
2018-06-23T01:27:04.675Z,64.81
2018-06-23T01:27:36.261Z,64.86
2018-06-23T01:28:07.829Z,64.89
2018-06-23T01:28:39.434Z,64.85
2018-06-23T01:29:11.036Z,64.81
2018-06-23T01:29:42.622Z,64.86
2018-06-23T01:30:14.220Z,64.84
2018-06-23T01:30:45.869Z,64.86
2018-06-23T01:31:17.454Z,64.74
2018-06-23T01:31:49.059Z,64.89
2018-06-23T01:32:20.670Z,64.77
2018-06-23T01:32:52.277Z,64.67
2018-06-23T01:33:23.902Z,64.89
2018-06-23T01:33:55.505Z,65.00
2018-06-23T01:34:27.085Z,65.24
2018-06-23T01:34:58.666Z,65.18
2018-06-23T01:35:30.249Z,65.20
2018-06-23T01:36:01.877Z,65.14
2018-06-23T01:36:33.477Z,65.13
2018-06-23T01:37:05.080Z,65.14
2018-06-23T01:37:36.652Z,65.13
2018-06-23T01:38:08.234Z,65.15
2018-06-23T01:38:39.813Z,65.13
2018-06-23T01:39:11.422Z,65.04
2018-06-23T01:39:43.026Z,65.01
2018-06-23T01:40:14.596Z,65.18
2018-06-23T01:40:46.229Z,65.16
2018-06-23T01:41:17.809Z,65.20
2018-06-23T01:41:49.375Z,65.25
2018-06-23T01:42:20.978Z,65.27
2018-06-23T01:42:52.581Z,65.16
2018-06-23T01:43:24.165Z,65.20
2018-06-23T01:43:55.742Z,65.25
2018-06-23T01:44:27.331Z,65.25
2018-06-23T01:44:58.925Z,65.26
2018-06-23T01:45:30.519Z,65.23
2018-06-23T01:46:02.169Z,65.21
2018-06-23T01:46:33.740Z,65.21
2018-06-23T01:47:05.336Z,65.15
2018-06-23T01:47:36.926Z,65.16
2018-06-23T01:48:08.516Z,65.20
2018-06-23T01:48:40.099Z,65.17
2018-06-23T01:49:11.685Z,65.22
2018-06-23T01:49:43.276Z,65.27
2018-06-23T01:50:14.930Z,65.20
2018-06-23T01:50:46.508Z,65.27
2018-06-23T01:51:18.144Z,65.21
2018-06-23T01:51:49.743Z,65.20
2018-06-23T01:52:21.329Z,65.25
2018-06-23T01:52:52.906Z,65.20
2018-06-23T01:53:24.517Z,65.22
2018-06-23T01:53:56.105Z,65.34
2018-06-23T01:54:27.725Z,65.28
2018-06-23T01:54:59.319Z,65.41
2018-06-23T01:55:30.900Z,65.32
2018-06-23T01:56:02.479Z,65.51
2018-06-23T01:56:34.080Z,65.44
2018-06-23T01:57:05.669Z,65.37
2018-06-23T01:57:37.253Z,65.50
2018-06-23T01:58:08.829Z,65.48
2018-06-23T01:58:40.435Z,65.42
2018-06-23T01:59:12.055Z,65.53
2018-06-23T01:59:43.629Z,65.49
2018-06-23T02:00:15.209Z,65.53
2018-06-23T02:00:46.784Z,65.58
2018-06-23T02:01:18.378Z,65.56
2018-06-23T02:01:49.961Z,65.60
2018-06-23T02:02:21.552Z,65.58
2018-06-23T02:02:53.145Z,65.73
2018-06-23T02:03:24.740Z,65.61
2018-06-23T02:03:56.329Z,65.55
2018-06-23T02:04:27.906Z,65.62
2018-06-23T02:04:59.485Z,65.63
2018-06-23T02:05:31.090Z,65.72
2018-06-23T02:06:02.684Z,65.70
2018-06-23T02:06:34.267Z,65.72
2018-06-23T02:07:05.846Z,65.85
2018-06-23T02:07:37.449Z,65.91
2018-06-23T02:08:09.080Z,65.79
2018-06-23T02:08:40.681Z,65.98
2018-06-23T02:09:12.280Z,65.95
2018-06-23T02:09:43.852Z,65.86
2018-06-23T02:10:15.461Z,65.88
2018-06-23T02:10:47.046Z,65.90
2018-06-23T02:11:18.640Z,65.94
2018-06-23T02:11:50.235Z,66.08
2018-06-23T02:12:21.841Z,65.99
2018-06-23T02:12:53.478Z,66.12
2018-06-23T02:13:25.121Z,66.15
2018-06-23T02:13:56.725Z,66.33
2018-06-23T02:14:28.320Z,66.28
2018-06-23T02:14:59.901Z,66.25
2018-06-23T02:15:31.485Z,66.20
2018-06-23T02:16:03.084Z,66.13
2018-06-23T02:16:49.612Z,66.13
2018-06-23T02:18:36.077Z,66.20
2018-06-23T02:20:22.377Z,66.42
2018-06-23T02:20:59.489Z,66.87
2018-06-23T02:21:48.941Z,66.87
2018-06-23T02:22:39.369Z,66.66
2018-06-23T02:23:28.789Z,66.57
2018-06-23T02:25:12.162Z,66.73
2018-06-23T02:26:45.429Z,66.80
2018-06-23T02:27:31.913Z,66.71
2018-06-23T02:29:16.269Z,66.84
2018-06-23T02:29:53.513Z,66.55
2018-06-23T02:30:25.103Z,66.45
2018-06-23T02:30:56.717Z,66.61
2018-06-23T02:31:28.308Z,66.80
2018-06-23T02:32:18.789Z,66.75
2018-06-23T02:32:50.373Z,66.86
2018-06-23T02:33:21.973Z,66.70
2018-06-23T02:33:53.557Z,66.77
2018-06-23T02:34:41.958Z,66.88
2018-06-23T02:35:13.541Z,67.08
2018-06-23T02:35:45.113Z,67.10
2018-06-23T02:36:16.717Z,67.02
2018-06-23T02:36:48.311Z,67.04
2018-06-23T02:37:19.888Z,66.96
2018-06-23T02:37:51.533Z,66.92
2018-06-23T02:38:23.118Z,67.03
2018-06-23T02:38:54.720Z,67.04
2018-06-23T02:39:26.326Z,66.87
2018-06-23T02:39:57.905Z,67.00
2018-06-23T02:40:29.505Z,66.90
2018-06-23T02:41:01.118Z,66.85
2018-06-23T02:41:32.717Z,66.75
2018-06-23T02:42:04.307Z,66.64
2018-06-23T02:42:35.884Z,66.95
2018-06-23T02:43:07.518Z,66.74
2018-06-23T02:43:39.126Z,66.56
2018-06-23T02:44:10.733Z,66.54
2018-06-23T02:44:42.305Z,66.83
2018-06-23T02:45:13.889Z,66.69
2018-06-23T02:45:45.470Z,66.54
2018-06-23T02:46:17.041Z,66.47
2018-06-23T02:46:48.622Z,66.46
2018-06-23T02:47:20.322Z,66.46
2018-06-23T02:47:51.934Z,66.50
2018-06-23T02:48:23.558Z,66.61
2018-06-23T02:48:55.178Z,66.57
2018-06-23T02:49:26.758Z,66.87
2018-06-23T02:49:58.369Z,66.77
2018-06-23T02:50:29.985Z,66.73
2018-06-23T02:51:01.594Z,66.68
2018-06-23T02:51:33.210Z,66.80
2018-06-23T02:52:04.793Z,67.07
2018-06-23T02:52:36.379Z,67.18
2018-06-23T02:53:07.976Z,67.17
2018-06-23T02:53:39.611Z,67.40
2018-06-23T02:54:11.220Z,67.35
2018-06-23T02:54:42.813Z,66.62
2018-06-23T02:55:14.408Z,66.96
2018-06-23T02:55:45.980Z,66.79
2018-06-23T02:56:17.557Z,66.75
2018-06-23T02:56:49.158Z,66.92
2018-06-23T02:57:20.777Z,67.02
2018-06-23T02:57:52.360Z,66.62
2018-06-23T02:58:24.014Z,66.47
2018-06-23T02:58:55.588Z,66.49
2018-06-23T02:59:27.168Z,66.34
2018-06-23T02:59:58.748Z,66.46
2018-06-23T03:00:30.357Z,66.52
2018-06-23T03:01:01.962Z,66.54
2018-06-23T03:01:33.569Z,66.45
2018-06-23T03:02:05.147Z,66.46
2018-06-23T03:02:36.749Z,66.37
2018-06-23T03:03:08.373Z,66.38
2018-06-23T03:03:39.968Z,66.49
2018-06-23T03:04:11.578Z,66.37
2018-06-23T03:04:43.184Z,66.41
2018-06-23T03:05:14.769Z,66.33
2018-06-23T03:05:46.350Z,66.37
2018-06-23T03:06:17.963Z,66.23
2018-06-23T03:06:49.550Z,66.26
2018-06-23T03:07:21.126Z,66.31
2018-06-23T03:07:52.705Z,66.51
2018-06-23T03:08:24.342Z,66.52
2018-06-23T03:08:55.945Z,66.43
2018-06-23T03:09:27.554Z,66.43
2018-06-23T03:09:59.170Z,66.44
2018-06-23T03:10:30.786Z,66.51
2018-06-23T03:11:02.392Z,66.32
2018-06-23T03:11:33.998Z,66.40
2018-06-23T03:12:05.610Z,66.43
2018-06-23T03:12:37.193Z,66.33
2018-06-23T03:13:08.777Z,66.55
2018-06-23T03:13:40.425Z,66.46
2018-06-23T03:14:12.034Z,66.34
2018-06-23T03:14:43.641Z,66.39
2018-06-23T03:15:15.256Z,66.49
2018-06-23T03:15:46.861Z,66.29
2018-06-23T03:16:18.447Z,66.54
2018-06-23T03:16:50.050Z,66.27
2018-06-23T03:17:21.666Z,66.48
2018-06-23T03:17:53.260Z,66.50
2018-06-23T03:18:24.856Z,66.46
2018-06-23T03:18:56.470Z,66.51
2018-06-23T03:19:28.073Z,66.56
2018-06-23T03:19:59.681Z,66.54
2018-06-23T03:20:31.333Z,66.67
2018-06-23T03:21:02.959Z,66.63
2018-06-23T03:21:34.546Z,66.69
2018-06-23T03:22:06.133Z,66.76
2018-06-23T03:22:37.767Z,66.69
2018-06-23T03:23:09.373Z,66.68
2018-06-23T03:23:40.944Z,66.69
2018-06-23T03:24:12.530Z,66.70
2018-06-23T03:24:44.136Z,66.76
2018-06-23T03:25:15.708Z,66.78
2018-06-23T03:25:47.314Z,66.83
2018-06-23T03:26:18.905Z,66.80
2018-06-23T03:26:50.475Z,66.84
2018-06-23T03:27:22.077Z,66.87
2018-06-23T03:27:53.692Z,66.77
2018-06-23T03:28:25.283Z,66.93
2018-06-23T03:28:56.866Z,66.83
2018-06-23T03:29:28.445Z,66.77
2018-06-23T03:30:00.063Z,66.87
2018-06-23T03:30:31.689Z,66.71
2018-06-23T03:31:03.284Z,66.93
2018-06-23T03:31:34.880Z,66.86
2018-06-23T03:32:06.489Z,66.70
2018-06-23T03:32:38.109Z,66.79
2018-06-23T03:33:09.709Z,66.85
2018-06-23T03:33:41.337Z,66.77
2018-06-23T03:34:12.937Z,66.69
2018-06-23T03:34:44.541Z,66.64
2018-06-23T03:35:16.153Z,66.61
2018-06-23T03:35:47.757Z,66.61
2018-06-23T03:36:19.369Z,66.63
2018-06-23T03:36:50.943Z,66.62
2018-06-23T03:37:22.553Z,66.69
2018-06-23T03:37:54.129Z,66.74
2018-06-23T03:38:25.739Z,66.67
2018-06-23T03:38:57.348Z,66.60
2018-06-23T03:39:28.998Z,66.81
2018-06-23T03:40:00.595Z,66.74
2018-06-23T03:40:32.201Z,66.62
2018-06-23T03:41:03.772Z,66.60
2018-06-23T03:41:35.373Z,66.63
2018-06-23T03:42:06.969Z,66.68
2018-06-23T03:42:38.549Z,66.76
2018-06-23T03:43:10.129Z,66.63
2018-06-23T03:43:41.783Z,66.60
2018-06-23T03:44:13.384Z,66.72
2018-06-23T03:44:44.986Z,66.64
2018-06-23T03:45:16.583Z,66.63
2018-06-23T03:45:48.179Z,66.63
2018-06-23T03:46:19.786Z,66.72
2018-06-23T03:46:51.393Z,66.65
2018-06-23T03:47:22.988Z,66.61
2018-06-23T03:47:54.584Z,66.62
2018-06-23T03:48:26.194Z,66.75
2018-06-23T03:48:57.808Z,66.85
2018-06-23T03:49:29.432Z,67.15
2018-06-23T03:50:01.024Z,66.94
2018-06-23T03:50:32.620Z,67.18
2018-06-23T03:51:04.210Z,66.79
2018-06-23T03:51:35.800Z,66.74
2018-06-23T03:52:07.431Z,66.91
2018-06-23T03:52:39.009Z,66.73
2018-06-23T03:53:10.667Z,66.76
2018-06-23T03:53:42.254Z,67.05
2018-06-23T03:54:13.861Z,66.85
2018-06-23T03:54:45.453Z,66.78
2018-06-23T03:55:17.062Z,66.86
2018-06-23T03:55:48.646Z,66.87
2018-06-23T03:56:20.249Z,66.81
2018-06-23T03:56:51.861Z,66.75
2018-06-23T03:57:23.446Z,66.80
2018-06-23T03:57:55.056Z,66.75
2018-06-23T03:58:26.638Z,66.77
2018-06-23T03:58:58.246Z,66.92
2018-06-23T03:59:29.862Z,66.74
2018-06-23T04:00:01.504Z,66.71
2018-06-23T04:00:33.108Z,66.73
2018-06-23T04:01:04.716Z,66.87
2018-06-23T04:01:36.325Z,66.75
2018-06-23T04:02:07.920Z,66.72
2018-06-23T04:02:39.515Z,66.68
2018-06-23T04:03:11.089Z,66.88
2018-06-23T04:03:42.668Z,66.68
2018-06-23T04:04:14.260Z,66.68
2018-06-23T04:04:45.855Z,66.69
2018-06-23T04:05:17.438Z,66.66
2018-06-23T04:05:49.021Z,66.75
2018-06-23T04:06:20.622Z,66.67
2018-06-23T04:06:52.230Z,66.69
2018-06-23T04:07:23.932Z,66.67
2018-06-23T04:07:55.517Z,66.62
2018-06-23T04:08:27.129Z,66.62
2018-06-23T04:08:58.788Z,66.66
2018-06-23T04:09:30.388Z,66.69
2018-06-23T04:10:01.969Z,66.74
2018-06-23T04:10:33.553Z,66.68
2018-06-23T04:11:05.153Z,66.72
2018-06-23T04:11:36.816Z,66.84
2018-06-23T04:12:08.329Z,66.97
2018-06-23T04:12:39.937Z,66.68
2018-06-23T04:13:11.536Z,66.61
2018-06-23T04:13:43.121Z,66.78
2018-06-23T04:14:14.769Z,66.68
2018-06-23T04:14:46.364Z,66.67
2018-06-23T04:15:17.965Z,66.65
2018-06-23T04:15:49.551Z,66.62
2018-06-23T04:16:21.134Z,66.67
2018-06-23T04:16:52.735Z,66.71
2018-06-23T04:17:24.332Z,66.71
2018-06-23T04:17:55.937Z,66.64
2018-06-23T04:18:27.532Z,66.62
2018-06-23T04:18:59.127Z,66.64
2018-06-23T04:19:30.778Z,66.63
2018-06-23T04:20:02.387Z,66.59
2018-06-23T04:20:33.964Z,66.66
2018-06-23T04:21:05.549Z,66.61
2018-06-23T04:21:37.145Z,66.75
2018-06-23T04:22:08.733Z,66.57
2018-06-23T04:22:40.314Z,66.58
2018-06-23T04:23:11.894Z,66.61
2018-06-23T04:23:43.478Z,66.57
2018-06-23T04:24:15.060Z,66.60
2018-06-23T04:24:46.717Z,66.61
2018-06-23T04:25:18.298Z,66.63
2018-06-23T04:25:49.895Z,66.48
2018-06-23T04:26:21.501Z,66.50
2018-06-23T04:26:53.105Z,66.60
2018-06-23T04:27:24.685Z,66.58
2018-06-23T04:27:56.269Z,66.54
2018-06-23T04:28:27.860Z,66.50
2018-06-23T04:28:59.445Z,66.48
2018-06-23T04:29:31.049Z,66.66
2018-06-23T04:30:02.683Z,66.58
2018-06-23T04:30:34.294Z,66.60
2018-06-23T04:31:05.905Z,66.51
2018-06-23T04:31:37.510Z,66.51
2018-06-23T04:32:09.132Z,66.47
2018-06-23T04:32:40.731Z,66.54
2018-06-23T04:33:12.342Z,66.66
2018-06-23T04:33:43.953Z,67.11
2018-06-23T04:34:15.551Z,67.02
2018-06-23T04:34:47.157Z,67.07
2018-06-23T04:35:18.780Z,67.00
2018-06-23T04:35:50.357Z,67.11
2018-06-23T04:36:21.962Z,66.91
2018-06-23T04:36:53.550Z,67.15
2018-06-23T04:37:25.154Z,67.27
2018-06-23T04:37:56.737Z,67.03
2018-06-23T04:38:28.327Z,67.14
2018-06-23T04:38:59.938Z,67.20
2018-06-23T04:39:31.536Z,67.00
2018-06-23T04:40:03.140Z,66.84
2018-06-23T04:40:34.716Z,67.02
2018-06-23T04:41:06.322Z,66.85
2018-06-23T04:41:37.953Z,66.80
2018-06-23T04:42:09.519Z,66.67
2018-06-23T04:42:41.136Z,66.73
2018-06-23T04:43:12.732Z,66.72
2018-06-23T04:43:44.341Z,66.80
2018-06-23T04:44:15.988Z,66.80
2018-06-23T04:44:47.585Z,66.77
2018-06-23T04:45:19.197Z,66.65
2018-06-23T04:45:50.821Z,66.67
2018-06-23T04:46:22.395Z,66.83
2018-06-23T04:46:53.968Z,66.73
2018-06-23T04:47:25.622Z,66.72
2018-06-23T04:47:57.195Z,66.89
2018-06-23T04:48:28.773Z,67.05
2018-06-23T04:49:00.378Z,66.98
2018-06-23T04:49:31.971Z,67.03
2018-06-23T04:50:03.586Z,67.30
2018-06-23T04:50:35.169Z,67.19
2018-06-23T04:51:06.753Z,67.09
2018-06-23T04:51:38.344Z,67.13
2018-06-23T04:52:09.925Z,67.17
2018-06-23T04:52:41.537Z,67.20
2018-06-23T04:53:13.103Z,67.31
2018-06-23T04:53:44.683Z,67.15
2018-06-23T04:54:16.256Z,67.19
2018-06-23T04:54:47.834Z,67.16
2018-06-23T04:55:19.437Z,67.27
2018-06-23T04:55:51.032Z,67.15
2018-06-23T04:56:22.646Z,67.07
2018-06-23T04:56:54.239Z,67.17
2018-06-23T04:57:25.889Z,67.17
2018-06-23T04:57:57.476Z,67.15
2018-06-23T04:58:29.058Z,67.25
2018-06-23T04:59:00.665Z,67.24
2018-06-23T04:59:32.309Z,67.17
2018-06-23T05:00:03.886Z,67.22
2018-06-23T05:00:35.594Z,67.22
2018-06-23T05:01:07.098Z,67.30
2018-06-23T05:01:38.692Z,67.23
2018-06-23T05:02:10.301Z,67.23
2018-06-23T05:02:41.890Z,67.13
2018-06-23T05:03:13.524Z,66.97
2018-06-23T05:03:45.133Z,66.96
2018-06-23T05:04:16.721Z,66.92
2018-06-23T05:04:48.316Z,66.98
2018-06-23T05:05:19.898Z,67.10
2018-06-23T05:05:51.545Z,67.06
2018-06-23T05:06:23.129Z,67.08
2018-06-23T05:06:54.709Z,67.16
2018-06-23T05:07:26.280Z,67.14
2018-06-23T05:07:57.878Z,67.05
2018-06-23T05:08:29.476Z,67.15
2018-06-23T05:09:01.126Z,67.10
2018-06-23T05:09:32.746Z,67.24
2018-06-23T05:10:04.349Z,67.20
2018-06-23T05:10:35.934Z,67.49
2018-06-23T05:11:07.528Z,67.42
2018-06-23T05:11:39.188Z,67.43
2018-06-23T05:12:10.797Z,67.46
2018-06-23T05:12:42.409Z,67.51
2018-06-23T05:13:14.073Z,67.42
2018-06-23T05:13:45.765Z,67.38
2018-06-23T05:14:17.408Z,67.44
2018-06-23T05:14:48.993Z,67.48
2018-06-23T05:15:22.542Z,67.45
2018-06-23T05:15:54.126Z,67.60
2018-06-23T05:16:25.732Z,67.56
2018-06-23T05:16:57.321Z,67.62
2018-06-23T05:17:28.925Z,67.60
2018-06-23T05:18:00.530Z,67.59
2018-06-23T05:18:32.459Z,67.54
2018-06-23T05:19:04.077Z,67.50
2018-06-23T05:19:35.704Z,67.63
2018-06-23T05:20:07.337Z,67.51
2018-06-23T05:20:38.912Z,67.59
2018-06-23T05:21:10.513Z,67.38
2018-06-23T05:21:42.084Z,67.27
2018-06-23T05:22:13.667Z,67.32
2018-06-23T05:22:45.250Z,67.44
2018-06-23T05:23:16.858Z,67.39
2018-06-23T05:23:48.450Z,67.24
2018-06-23T05:24:20.040Z,67.38
2018-06-23T05:24:51.612Z,67.38
2018-06-23T05:25:23.213Z,67.54
2018-06-23T05:25:54.818Z,67.67
2018-06-23T05:26:26.419Z,67.98
2018-06-23T05:26:58.030Z,67.47
2018-06-23T05:27:29.624Z,67.56
2018-06-23T05:28:01.224Z,67.43
2018-06-23T05:28:32.810Z,67.54
2018-06-23T05:29:04.424Z,67.59
2018-06-23T05:29:36.029Z,67.47
2018-06-23T05:30:07.644Z,67.13
2018-06-23T05:30:39.245Z,67.38
2018-06-23T05:31:10.829Z,67.40
2018-06-23T05:31:42.443Z,67.59
2018-06-23T05:32:14.046Z,67.52
2018-06-23T05:32:45.664Z,67.43
2018-06-23T05:33:17.310Z,67.45
2018-06-23T05:33:48.888Z,67.61
2018-06-23T05:34:20.479Z,67.72
2018-06-23T05:34:52.079Z,67.73
2018-06-23T05:35:23.713Z,68.03
2018-06-23T05:35:55.313Z,67.68
2018-06-23T05:36:26.953Z,67.82
2018-06-23T05:36:58.537Z,67.89
2018-06-23T05:37:30.118Z,67.93
2018-06-23T05:38:01.712Z,67.92
2018-06-23T05:38:33.321Z,67.95
2018-06-23T05:39:04.892Z,67.89
2018-06-23T05:39:36.481Z,67.88
2018-06-23T05:40:08.090Z,67.64
2018-06-23T05:40:39.741Z,67.80
2018-06-23T05:41:11.330Z,67.90
2018-06-23T05:41:42.929Z,67.81
2018-06-23T05:42:14.500Z,67.80
2018-06-23T05:42:46.072Z,67.60
2018-06-23T05:43:17.677Z,67.74
2018-06-23T05:43:49.267Z,67.64
2018-06-23T05:44:20.877Z,67.86
2018-06-23T05:44:52.515Z,67.86
2018-06-23T05:45:24.128Z,67.74
2018-06-23T05:45:55.786Z,67.59
2018-06-23T05:46:27.388Z,67.66
2018-06-23T05:46:58.977Z,68.03
2018-06-23T05:47:30.545Z,68.17
2018-06-23T05:48:02.156Z,67.83
2018-06-23T05:48:33.744Z,67.65
2018-06-23T05:49:05.320Z,67.50
2018-06-23T05:49:36.928Z,67.70
2018-06-23T05:50:08.542Z,67.86
2018-06-23T05:50:40.116Z,68.35
2018-06-23T05:51:11.802Z,67.82
2018-06-23T05:51:43.372Z,67.99
2018-06-23T05:52:14.957Z,68.08
2018-06-23T05:52:46.561Z,68.02
2018-06-23T05:53:18.145Z,67.35
2018-06-23T05:53:49.716Z,67.62
2018-06-23T05:54:21.293Z,67.60
2018-06-23T05:54:52.872Z,67.65
2018-06-23T05:55:24.457Z,67.58
2018-06-23T05:55:56.104Z,67.60
2018-06-23T05:56:27.694Z,67.50
2018-06-23T05:56:59.298Z,67.17
2018-06-23T05:57:30.873Z,66.86
2018-06-23T05:58:02.446Z,66.88
2018-06-23T05:58:34.041Z,66.94
2018-06-23T05:59:05.725Z,67.09
2018-06-23T05:59:37.423Z,67.18
2018-06-23T06:00:09.026Z,67.27
2018-06-23T06:00:40.645Z,67.48
2018-06-23T06:01:12.272Z,67.39
2018-06-23T06:01:43.852Z,67.28
2018-06-23T06:02:15.438Z,67.41
2018-06-23T06:02:47.037Z,66.80
2018-06-23T06:03:18.645Z,66.73
2018-06-23T06:03:50.226Z,66.86
2018-06-23T06:04:21.810Z,66.79
2018-06-23T06:04:53.417Z,66.73
2018-06-23T06:05:24.996Z,66.88
2018-06-23T06:05:56.617Z,66.75
2018-06-23T06:06:28.267Z,66.83
2018-06-23T06:06:59.873Z,67.08
2018-06-23T06:07:31.485Z,66.86
2018-06-23T06:08:03.074Z,66.92
2018-06-23T06:08:34.652Z,66.94
2018-06-23T06:09:06.243Z,66.83
2018-06-23T06:09:38.189Z,66.69
2018-06-23T06:10:09.764Z,66.77
2018-06-23T06:10:41.363Z,66.70
2018-06-23T06:11:13.018Z,66.83
2018-06-23T06:11:44.655Z,66.79
2018-06-23T06:12:16.228Z,66.87
2018-06-23T06:12:47.806Z,66.80
2018-06-23T06:13:19.414Z,67.03
2018-06-23T06:13:51.009Z,66.88
2018-06-23T06:14:22.578Z,66.94
2018-06-23T06:14:54.176Z,66.89
2018-06-23T06:15:25.775Z,66.97
2018-06-23T06:15:57.368Z,66.94
2018-06-23T06:16:29.009Z,66.91
2018-06-23T06:17:00.589Z,66.96
2018-06-23T06:17:32.197Z,67.05
2018-06-23T06:18:03.791Z,66.94
2018-06-23T06:18:35.375Z,67.13
2018-06-23T06:19:06.967Z,67.04
2018-06-23T06:19:38.550Z,67.10
2018-06-23T06:20:10.131Z,67.30
2018-06-23T06:20:41.713Z,67.30
2018-06-23T06:21:13.317Z,67.43
2018-06-23T06:21:44.939Z,67.38
2018-06-23T06:22:16.521Z,67.19
2018-06-23T06:22:48.088Z,67.04
2018-06-23T06:23:19.656Z,67.14
2018-06-23T06:23:51.307Z,67.56
2018-06-23T06:24:22.898Z,67.20
2018-06-23T06:24:54.472Z,66.99
2018-06-23T06:25:26.063Z,66.90
2018-06-23T06:25:57.669Z,66.90
2018-06-23T06:26:29.253Z,66.74
2018-06-23T06:27:00.886Z,66.90
2018-06-23T06:27:32.477Z,66.93
2018-06-23T06:28:04.082Z,66.88
2018-06-23T06:28:35.667Z,66.87
2018-06-23T06:29:07.255Z,66.73
2018-06-23T06:29:38.869Z,66.64
2018-06-23T06:30:10.467Z,66.67
2018-06-23T06:30:42.050Z,66.67
2018-06-23T06:31:13.634Z,66.77
2018-06-23T06:31:45.215Z,66.86
2018-06-23T06:32:16.866Z,66.85
2018-06-23T06:32:48.517Z,66.85
2018-06-23T06:33:20.116Z,66.83
2018-06-23T06:33:51.721Z,66.78
2018-06-23T06:34:23.305Z,66.66
2018-06-23T06:34:54.876Z,66.56
2018-06-23T06:35:26.477Z,66.42
2018-06-23T06:35:58.108Z,66.28
2018-06-23T06:36:29.706Z,66.09
2018-06-23T06:37:01.321Z,65.84
2018-06-23T06:37:32.930Z,65.64
2018-06-23T06:38:04.505Z,65.51
2018-06-23T06:38:36.091Z,65.37
2018-06-23T06:39:07.670Z,65.27
2018-06-23T06:39:39.269Z,65.15
2018-06-23T06:40:10.864Z,65.16
2018-06-23T06:40:42.470Z,65.26
2018-06-23T06:41:14.040Z,65.32
2018-06-23T06:41:45.681Z,65.33
2018-06-23T06:42:17.274Z,65.34
2018-06-23T06:42:48.867Z,65.28
2018-06-23T06:43:20.457Z,65.21
2018-06-23T06:43:52.057Z,65.11
2018-06-23T06:44:23.627Z,64.99
2018-06-23T06:44:55.249Z,64.91
2018-06-23T06:45:26.869Z,64.89
2018-06-23T06:45:58.460Z,64.85
2018-06-23T06:46:30.062Z,64.81
2018-06-23T06:47:01.718Z,64.68
2018-06-23T06:47:33.329Z,64.61
2018-06-23T06:48:04.972Z,64.53
2018-06-23T06:48:36.604Z,64.56
2018-06-23T06:49:08.213Z,64.64
2018-06-23T06:49:39.807Z,64.71
2018-06-23T06:50:11.498Z,64.68
2018-06-23T06:50:43.121Z,64.61
2018-06-23T06:51:14.705Z,64.53
2018-06-23T06:51:46.310Z,64.61
2018-06-23T06:52:17.912Z,64.67
2018-06-23T06:52:49.525Z,64.72
2018-06-23T06:53:21.134Z,64.67
2018-06-23T06:53:52.725Z,64.50
2018-06-23T06:54:24.376Z,64.39
2018-06-23T06:54:55.962Z,64.41